sensor_id;sensor_type;location;lat;lon;timestamp;P1;durP1;ratioP1;P2;durP2;ratioP2
32535;SDS011;18974;50.838;4.636;2023-12-20T00:02:19;23.27;;;3.65;;
32535;SDS011;18974;50.838;4.636;2023-12-20T00:04:45;34.25;;;3.63;;
32535;SDS011;18974;50.838;4.636;2023-12-20T00:07:11;20.45;;;3.65;;
32535;SDS011;18974;50.838;4.636;2023-12-20T00:09:36;35.65;;;4.95;;
32535;SDS011;18974;50.838;4.636;2023-12-20T00:12:02;20.88;;;3.58;;
32535;SDS011;18974;50.838;4.636;2023-12-20T00:14:28;24.38;;;3.92;;
32535;SDS011;18974;50.838;4.636;2023-12-20T00:16:53;22.05;;;3.97;;
32535;SDS011;18974;50.838;4.636;2023-12-20T00:19:19;20.70;;;3.75;;
32535;SDS011;18974;50.838;4.636;2023-12-20T00:21:45;19.15;;;3.83;;
32535;SDS011;18974;50.838;4.636;2023-12-20T00:24:10;23.02;;;3.67;;
32535;SDS011;18974;50.838;4.636;2023-12-20T00:26:36;17.92;;;3.47;;
32535;SDS011;18974;50.838;4.636;2023-12-20T00:29:02;18.40;;;3.65;;
32535;SDS011;18974;50.838;4.636;2023-12-20T00:31:27;19.98;;;3.42;;
32535;SDS011;18974;50.838;4.636;2023-12-20T00:33:53;31.90;;;3.78;;
32535;SDS011;18974;50.838;4.636;2023-12-20T00:36:19;22.58;;;3.17;;
32535;SDS011;18974;50.838;4.636;2023-12-20T00:38:45;21.27;;;3.00;;
32535;SDS011;18974;50.838;4.636;2023-12-20T00:41:11;19.40;;;3.95;;
32535;SDS011;18974;50.838;4.636;2023-12-20T00:43:36;22.35;;;4.25;;
32535;SDS011;18974;50.838;4.636;2023-12-20T00:46:02;27.38;;;4.15;;
32535;SDS011;18974;50.838;4.636;2023-12-20T00:48:28;18.63;;;2.97;;
32535;SDS011;18974;50.838;4.636;2023-12-20T00:50:56;19.25;;;3.28;;
32535;SDS011;18974;50.838;4.636;2023-12-20T00:53:22;27.92;;;3.50;;
32535;SDS011;18974;50.838;4.636;2023-12-20T00:55:48;18.63;;;3.05;;
32535;SDS011;18974;50.838;4.636;2023-12-20T00:58:15;16.40;;;3.47;;
32535;SDS011;18974;50.838;4.636;2023-12-20T01:00:41;23.30;;;3.10;;
32535;SDS011;18974;50.838;4.636;2023-12-20T01:03:09;18.95;;;3.45;;
32535;SDS011;18974;50.838;4.636;2023-12-20T01:05:35;24.15;;;3.28;;
32535;SDS011;18974;50.838;4.636;2023-12-20T01:08:00;23.02;;;3.08;;
32535;SDS011;18974;50.838;4.636;2023-12-20T01:10:28;21.67;;;3.20;;
32535;SDS011;18974;50.838;4.636;2023-12-20T01:12:54;23.75;;;3.15;;
32535;SDS011;18974;50.838;4.636;2023-12-20T01:15:20;17.30;;;2.92;;
32535;SDS011;18974;50.838;4.636;2023-12-20T01:17:45;18.95;;;2.92;;
32535;SDS011;18974;50.838;4.636;2023-12-20T01:20:12;17.13;;;2.90;;
32535;SDS011;18974;50.838;4.636;2023-12-20T01:22:38;27.27;;;3.63;;
32535;SDS011;18974;50.838;4.636;2023-12-20T01:25:04;20.25;;;3.45;;
32535;SDS011;18974;50.838;4.636;2023-12-20T01:27:30;24.13;;;3.72;;
32535;SDS011;18974;50.838;4.636;2023-12-20T01:29:56;24.38;;;3.80;;
32535;SDS011;18974;50.838;4.636;2023-12-20T01:32:22;18.60;;;3.33;;
32535;SDS011;18974;50.838;4.636;2023-12-20T01:34:47;16.98;;;3.30;;
32535;SDS011;18974;50.838;4.636;2023-12-20T01:37:13;23.77;;;4.22;;
32535;SDS011;18974;50.838;4.636;2023-12-20T01:39:39;24.17;;;4.00;;
32535;SDS011;18974;50.838;4.636;2023-12-20T01:42:05;20.10;;;3.80;;
32535;SDS011;18974;50.838;4.636;2023-12-20T01:44:30;18.65;;;3.88;;
32535;SDS011;18974;50.838;4.636;2023-12-20T01:46:56;24.70;;;4.20;;
32535;SDS011;18974;50.838;4.636;2023-12-20T01:49:22;19.23;;;4.15;;
32535;SDS011;18974;50.838;4.636;2023-12-20T01:51:48;28.77;;;3.90;;
32535;SDS011;18974;50.838;4.636;2023-12-20T01:54:15;24.27;;;4.30;;
32535;SDS011;18974;50.838;4.636;2023-12-20T01:56:41;25.13;;;4.35;;
32535;SDS011;18974;50.838;4.636;2023-12-20T01:59:07;24.60;;;4.30;;
32535;SDS011;18974;50.838;4.636;2023-12-20T02:01:34;23.85;;;4.25;;
32535;SDS011;18974;50.838;4.636;2023-12-20T02:04:00;22.10;;;4.20;;
32535;SDS011;18974;50.838;4.636;2023-12-20T02:06:29;19.02;;;3.67;;
32535;SDS011;18974;50.838;4.636;2023-12-20T02:08:58;32.85;;;4.50;;
32535;SDS011;18974;50.838;4.636;2023-12-20T02:11:25;30.85;;;4.30;;
32535;SDS011;18974;50.838;4.636;2023-12-20T02:13:51;31.38;;;4.15;;
32535;SDS011;18974;50.838;4.636;2023-12-20T02:16:16;25.55;;;4.18;;
32535;SDS011;18974;50.838;4.636;2023-12-20T02:18:43;26.17;;;4.35;;
32535;SDS011;18974;50.838;4.636;2023-12-20T02:21:09;29.20;;;4.65;;
32535;SDS011;18974;50.838;4.636;2023-12-20T02:23:35;26.30;;;3.83;;
32535;SDS011;18974;50.838;4.636;2023-12-20T02:26:01;23.00;;;4.30;;
32535;SDS011;18974;50.838;4.636;2023-12-20T02:28:28;18.45;;;4.00;;
32535;SDS011;18974;50.838;4.636;2023-12-20T02:30:54;23.17;;;4.32;;
32535;SDS011;18974;50.838;4.636;2023-12-20T02:33:20;21.77;;;4.18;;
32535;SDS011;18974;50.838;4.636;2023-12-20T02:35:45;23.02;;;4.43;;
32535;SDS011;18974;50.838;4.636;2023-12-20T02:38:12;22.45;;;4.95;;
32535;SDS011;18974;50.838;4.636;2023-12-20T02:40:38;18.08;;;4.20;;
32535;SDS011;18974;50.838;4.636;2023-12-20T02:43:03;22.92;;;4.35;;
32535;SDS011;18974;50.838;4.636;2023-12-20T02:45:29;24.80;;;4.70;;
32535;SDS011;18974;50.838;4.636;2023-12-20T02:47:55;20.60;;;4.35;;
32535;SDS011;18974;50.838;4.636;2023-12-20T02:50:21;28.92;;;4.60;;
32535;SDS011;18974;50.838;4.636;2023-12-20T02:52:47;24.40;;;4.13;;
32535;SDS011;18974;50.838;4.636;2023-12-20T02:55:12;27.67;;;5.32;;
32535;SDS011;18974;50.838;4.636;2023-12-20T02:57:38;22.33;;;4.60;;
32535;SDS011;18974;50.838;4.636;2023-12-20T03:00:07;28.88;;;4.75;;
32535;SDS011;18974;50.838;4.636;2023-12-20T03:02:34;20.92;;;4.47;;
32535;SDS011;18974;50.838;4.636;2023-12-20T03:05:00;33.00;;;4.38;;
32535;SDS011;18974;50.838;4.636;2023-12-20T03:07:26;22.73;;;4.15;;
32535;SDS011;18974;50.838;4.636;2023-12-20T03:09:52;38.08;;;5.35;;
32535;SDS011;18974;50.838;4.636;2023-12-20T03:12:18;24.05;;;4.68;;
32535;SDS011;18974;50.838;4.636;2023-12-20T03:14:43;32.28;;;5.38;;
32535;SDS011;18974;50.838;4.636;2023-12-20T03:17:09;31.98;;;5.22;;
32535;SDS011;18974;50.838;4.636;2023-12-20T03:19:35;25.85;;;4.32;;
32535;SDS011;18974;50.838;4.636;2023-12-20T03:22:01;23.45;;;4.70;;
32535;SDS011;18974;50.838;4.636;2023-12-20T03:24:27;25.60;;;4.97;;
32535;SDS011;18974;50.838;4.636;2023-12-20T03:26:53;30.15;;;5.30;;
32535;SDS011;18974;50.838;4.636;2023-12-20T03:29:18;34.53;;;5.43;;
32535;SDS011;18974;50.838;4.636;2023-12-20T03:31:44;24.55;;;5.43;;
32535;SDS011;18974;50.838;4.636;2023-12-20T03:34:10;32.83;;;5.47;;
32535;SDS011;18974;50.838;4.636;2023-12-20T03:36:36;29.33;;;5.20;;
32535;SDS011;18974;50.838;4.636;2023-12-20T03:39:02;25.65;;;4.97;;
32535;SDS011;18974;50.838;4.636;2023-12-20T03:41:28;27.75;;;5.20;;
32535;SDS011;18974;50.838;4.636;2023-12-20T03:43:54;30.08;;;5.18;;
32535;SDS011;18974;50.838;4.636;2023-12-20T03:46:19;28.13;;;4.72;;
32535;SDS011;18974;50.838;4.636;2023-12-20T03:48:45;20.38;;;5.55;;
32535;SDS011;18974;50.838;4.636;2023-12-20T03:51:11;19.42;;;4.57;;
32535;SDS011;18974;50.838;4.636;2023-12-20T03:53:37;22.17;;;5.68;;
32535;SDS011;18974;50.838;4.636;2023-12-20T03:56:02;21.77;;;6.45;;
32535;SDS011;18974;50.838;4.636;2023-12-20T03:58:28;22.88;;;5.43;;
32535;SDS011;18974;50.838;4.636;2023-12-20T04:00:54;20.05;;;5.20;;
32535;SDS011;18974;50.838;4.636;2023-12-20T04:03:20;28.60;;;5.68;;
32535;SDS011;18974;50.838;4.636;2023-12-20T04:05:45;33.05;;;5.53;;
32535;SDS011;18974;50.838;4.636;2023-12-20T04:08:11;21.35;;;6.13;;
32535;SDS011;18974;50.838;4.636;2023-12-20T04:10:37;27.05;;;6.18;;
32535;SDS011;18974;50.838;4.636;2023-12-20T04:13:03;25.02;;;5.53;;
32535;SDS011;18974;50.838;4.636;2023-12-20T04:15:29;24.50;;;6.15;;
32535;SDS011;18974;50.838;4.636;2023-12-20T04:17:55;22.52;;;4.88;;
32535;SDS011;18974;50.838;4.636;2023-12-20T04:20:20;30.83;;;4.68;;
32535;SDS011;18974;50.838;4.636;2023-12-20T04:22:46;25.15;;;5.13;;
32535;SDS011;18974;50.838;4.636;2023-12-20T04:25:12;25.98;;;5.43;;
32535;SDS011;18974;50.838;4.636;2023-12-20T04:27:38;23.85;;;5.85;;
32535;SDS011;18974;50.838;4.636;2023-12-20T04:30:03;21.20;;;4.40;;
32535;SDS011;18974;50.838;4.636;2023-12-20T04:32:29;24.42;;;4.43;;
32535;SDS011;18974;50.838;4.636;2023-12-20T04:34:56;26.30;;;5.40;;
32535;SDS011;18974;50.838;4.636;2023-12-20T04:37:22;26.08;;;4.95;;
32535;SDS011;18974;50.838;4.636;2023-12-20T04:39:47;26.48;;;5.30;;
32535;SDS011;18974;50.838;4.636;2023-12-20T04:42:13;26.08;;;5.00;;
32535;SDS011;18974;50.838;4.636;2023-12-20T04:44:39;24.35;;;4.97;;
32535;SDS011;18974;50.838;4.636;2023-12-20T04:47:04;27.27;;;5.28;;
32535;SDS011;18974;50.838;4.636;2023-12-20T04:49:30;25.40;;;5.05;;
32535;SDS011;18974;50.838;4.636;2023-12-20T04:51:56;21.80;;;4.65;;
32535;SDS011;18974;50.838;4.636;2023-12-20T04:54:21;31.40;;;5.25;;
32535;SDS011;18974;50.838;4.636;2023-12-20T04:56:47;23.15;;;6.68;;
32535;SDS011;18974;50.838;4.636;2023-12-20T04:59:13;22.80;;;4.97;;
32535;SDS011;18974;50.838;4.636;2023-12-20T05:01:39;31.25;;;5.90;;
32535;SDS011;18974;50.838;4.636;2023-12-20T05:04:04;21.25;;;4.80;;
32535;SDS011;18974;50.838;4.636;2023-12-20T05:06:30;29.70;;;4.93;;
32535;SDS011;18974;50.838;4.636;2023-12-20T05:08:55;25.75;;;4.43;;
32535;SDS011;18974;50.838;4.636;2023-12-20T05:11:21;18.83;;;4.47;;
32535;SDS011;18974;50.838;4.636;2023-12-20T05:13:47;23.98;;;4.05;;
32535;SDS011;18974;50.838;4.636;2023-12-20T05:16:13;23.90;;;4.35;;
32535;SDS011;18974;50.838;4.636;2023-12-20T05:18:39;24.73;;;4.68;;
32535;SDS011;18974;50.838;4.636;2023-12-20T05:21:05;21.88;;;4.43;;
32535;SDS011;18974;50.838;4.636;2023-12-20T05:23:31;19.65;;;4.13;;
32535;SDS011;18974;50.838;4.636;2023-12-20T05:25:57;25.67;;;4.97;;
32535;SDS011;18974;50.838;4.636;2023-12-20T05:28:24;20.02;;;4.53;;
32535;SDS011;18974;50.838;4.636;2023-12-20T05:30:49;19.33;;;4.45;;
32535;SDS011;18974;50.838;4.636;2023-12-20T05:33:15;18.40;;;3.72;;
32535;SDS011;18974;50.838;4.636;2023-12-20T05:35:41;28.70;;;4.70;;
32535;SDS011;18974;50.838;4.636;2023-12-20T05:38:06;27.42;;;4.68;;
32535;SDS011;18974;50.838;4.636;2023-12-20T05:40:32;23.73;;;4.38;;
32535;SDS011;18974;50.838;4.636;2023-12-20T05:42:58;19.88;;;4.03;;
32535;SDS011;18974;50.838;4.636;2023-12-20T05:45:23;22.48;;;4.30;;
32535;SDS011;18974;50.838;4.636;2023-12-20T05:47:49;26.75;;;4.95;;
32535;SDS011;18974;50.838;4.636;2023-12-20T05:50:14;22.13;;;4.93;;
32535;SDS011;18974;50.838;4.636;2023-12-20T05:52:40;29.60;;;4.85;;
32535;SDS011;18974;50.838;4.636;2023-12-20T05:55:06;21.60;;;5.13;;
32535;SDS011;18974;50.838;4.636;2023-12-20T05:57:32;30.30;;;4.75;;
32535;SDS011;18974;50.838;4.636;2023-12-20T05:59:57;28.08;;;5.07;;
32535;SDS011;18974;50.838;4.636;2023-12-20T06:02:23;22.95;;;5.05;;
32535;SDS011;18974;50.838;4.636;2023-12-20T06:04:49;22.65;;;4.78;;
32535;SDS011;18974;50.838;4.636;2023-12-20T06:07:15;27.27;;;4.78;;
32535;SDS011;18974;50.838;4.636;2023-12-20T06:09:41;26.73;;;5.68;;
32535;SDS011;18974;50.838;4.636;2023-12-20T06:12:07;30.80;;;5.05;;
32535;SDS011;18974;50.838;4.636;2023-12-20T06:14:35;19.40;;;4.97;;
32535;SDS011;18974;50.838;4.636;2023-12-20T06:17:01;20.13;;;4.53;;
32535;SDS011;18974;50.838;4.636;2023-12-20T06:19:27;21.90;;;4.70;;
32535;SDS011;18974;50.838;4.636;2023-12-20T06:21:53;30.85;;;5.60;;
32535;SDS011;18974;50.838;4.636;2023-12-20T06:24:19;27.13;;;4.95;;
32535;SDS011;18974;50.838;4.636;2023-12-20T06:26:44;34.60;;;5.15;;
32535;SDS011;18974;50.838;4.636;2023-12-20T06:29:10;15.77;;;3.92;;
32535;SDS011;18974;50.838;4.636;2023-12-20T06:31:36;32.97;;;5.60;;
32535;SDS011;18974;50.838;4.636;2023-12-20T06:34:01;19.80;;;5.38;;
32535;SDS011;18974;50.838;4.636;2023-12-20T06:36:28;22.77;;;4.65;;
32535;SDS011;18974;50.838;4.636;2023-12-20T06:38:54;23.00;;;4.57;;
32535;SDS011;18974;50.838;4.636;2023-12-20T06:41:19;26.77;;;5.00;;
32535;SDS011;18974;50.838;4.636;2023-12-20T06:43:46;19.40;;;4.57;;
32535;SDS011;18974;50.838;4.636;2023-12-20T06:46:12;21.20;;;4.25;;
32535;SDS011;18974;50.838;4.636;2023-12-20T06:48:38;21.02;;;4.45;;
32535;SDS011;18974;50.838;4.636;2023-12-20T06:51:05;26.38;;;4.35;;
32535;SDS011;18974;50.838;4.636;2023-12-20T06:53:31;26.88;;;4.95;;
32535;SDS011;18974;50.838;4.636;2023-12-20T06:55:56;20.98;;;4.05;;
32535;SDS011;18974;50.838;4.636;2023-12-20T06:58:22;20.17;;;4.25;;
32535;SDS011;18974;50.838;4.636;2023-12-20T07:00:48;35.22;;;4.63;;
32535;SDS011;18974;50.838;4.636;2023-12-20T07:03:14;22.17;;;3.95;;
32535;SDS011;18974;50.838;4.636;2023-12-20T07:05:41;22.88;;;3.90;;
32535;SDS011;18974;50.838;4.636;2023-12-20T07:08:06;36.05;;;4.85;;
32535;SDS011;18974;50.838;4.636;2023-12-20T07:10:32;21.05;;;3.90;;
32535;SDS011;18974;50.838;4.636;2023-12-20T07:12:58;19.92;;;3.38;;
32535;SDS011;18974;50.838;4.636;2023-12-20T07:15:23;23.20;;;4.45;;
32535;SDS011;18974;50.838;4.636;2023-12-20T07:17:49;29.70;;;5.00;;
32535;SDS011;18974;50.838;4.636;2023-12-20T07:20:15;28.30;;;3.83;;
32535;SDS011;18974;50.838;4.636;2023-12-20T07:22:41;20.05;;;3.60;;
32535;SDS011;18974;50.838;4.636;2023-12-20T07:25:07;18.50;;;3.42;;
32535;SDS011;18974;50.838;4.636;2023-12-20T07:27:33;22.10;;;3.70;;
32535;SDS011;18974;50.838;4.636;2023-12-20T07:29:58;22.98;;;3.50;;
32535;SDS011;18974;50.838;4.636;2023-12-20T07:32:24;17.77;;;3.15;;
32535;SDS011;18974;50.838;4.636;2023-12-20T07:34:50;28.88;;;4.15;;
32535;SDS011;18974;50.838;4.636;2023-12-20T07:37:16;31.60;;;4.32;;
32535;SDS011;18974;50.838;4.636;2023-12-20T07:39:41;20.55;;;3.58;;
32535;SDS011;18974;50.838;4.636;2023-12-20T07:42:07;24.13;;;3.20;;
32535;SDS011;18974;50.838;4.636;2023-12-20T07:44:34;26.80;;;4.30;;
32535;SDS011;18974;50.838;4.636;2023-12-20T07:47:00;21.48;;;3.38;;
32535;SDS011;18974;50.838;4.636;2023-12-20T07:49:27;22.40;;;4.25;;
32535;SDS011;18974;50.838;4.636;2023-12-20T07:51:52;25.33;;;3.13;;
32535;SDS011;18974;50.838;4.636;2023-12-20T07:54:18;26.20;;;4.40;;
32535;SDS011;18974;50.838;4.636;2023-12-20T07:56:45;20.42;;;2.92;;
32535;SDS011;18974;50.838;4.636;2023-12-20T07:59:11;17.02;;;3.55;;
32535;SDS011;18974;50.838;4.636;2023-12-20T08:01:37;17.00;;;3.03;;
32535;SDS011;18974;50.838;4.636;2023-12-20T08:04:02;22.48;;;3.72;;
32535;SDS011;18974;50.838;4.636;2023-12-20T08:06:28;19.85;;;3.55;;
32535;SDS011;18974;50.838;4.636;2023-12-20T08:08:54;20.60;;;3.33;;
32535;SDS011;18974;50.838;4.636;2023-12-20T08:11:19;16.15;;;2.92;;
32535;SDS011;18974;50.838;4.636;2023-12-20T08:13:45;24.33;;;3.58;;
32535;SDS011;18974;50.838;4.636;2023-12-20T08:16:11;21.42;;;3.55;;
32535;SDS011;18974;50.838;4.636;2023-12-20T08:18:38;20.52;;;3.20;;
32535;SDS011;18974;50.838;4.636;2023-12-20T08:21:04;16.88;;;2.92;;
32535;SDS011;18974;50.838;4.636;2023-12-20T08:23:32;21.42;;;3.78;;
32535;SDS011;18974;50.838;4.636;2023-12-20T08:25:58;23.70;;;3.15;;
32535;SDS011;18974;50.838;4.636;2023-12-20T08:28:28;21.42;;;4.90;;
32535;SDS011;18974;50.838;4.636;2023-12-20T08:30:54;20.20;;;4.25;;
32535;SDS011;18974;50.838;4.636;2023-12-20T08:33:19;20.88;;;3.22;;
32535;SDS011;18974;50.838;4.636;2023-12-20T08:35:45;19.58;;;3.50;;
32535;SDS011;18974;50.838;4.636;2023-12-20T08:38:11;21.92;;;3.78;;
32535;SDS011;18974;50.838;4.636;2023-12-20T08:40:37;22.77;;;4.10;;
32535;SDS011;18974;50.838;4.636;2023-12-20T08:43:03;17.77;;;3.28;;
32535;SDS011;18974;50.838;4.636;2023-12-20T08:45:28;17.92;;;2.58;;
32535;SDS011;18974;50.838;4.636;2023-12-20T08:47:54;25.33;;;3.40;;
32535;SDS011;18974;50.838;4.636;2023-12-20T08:50:20;21.73;;;3.28;;
32535;SDS011;18974;50.838;4.636;2023-12-20T08:52:46;25.60;;;3.33;;
32535;SDS011;18974;50.838;4.636;2023-12-20T08:55:12;19.35;;;3.78;;
32535;SDS011;18974;50.838;4.636;2023-12-20T08:57:39;23.75;;;2.90;;
32535;SDS011;18974;50.838;4.636;2023-12-20T09:00:05;25.05;;;2.97;;
32535;SDS011;18974;50.838;4.636;2023-12-20T09:02:32;24.48;;;2.58;;
32535;SDS011;18974;50.838;4.636;2023-12-20T09:05:01;27.80;;;3.92;;
32535;SDS011;18974;50.838;4.636;2023-12-20T09:07:27;27.85;;;2.90;;
32535;SDS011;18974;50.838;4.636;2023-12-20T09:09:55;25.17;;;3.97;;
32535;SDS011;18974;50.838;4.636;2023-12-20T09:12:21;26.45;;;4.15;;
32535;SDS011;18974;50.838;4.636;2023-12-20T09:14:47;23.20;;;4.38;;
32535;SDS011;18974;50.838;4.636;2023-12-20T09:17:14;16.63;;;3.03;;
32535;SDS011;18974;50.838;4.636;2023-12-20T09:19:41;24.20;;;3.65;;
32535;SDS011;18974;50.838;4.636;2023-12-20T09:22:08;15.13;;;4.10;;
32535;SDS011;18974;50.838;4.636;2023-12-20T09:24:35;21.95;;;3.92;;
32535;SDS011;18974;50.838;4.636;2023-12-20T09:27:00;18.77;;;3.50;;
32535;SDS011;18974;50.838;4.636;2023-12-20T09:29:26;22.40;;;3.33;;
32535;SDS011;18974;50.838;4.636;2023-12-20T09:31:52;27.33;;;3.88;;
32535;SDS011;18974;50.838;4.636;2023-12-20T09:34:17;17.45;;;3.72;;
32535;SDS011;18974;50.838;4.636;2023-12-20T09:36:43;25.30;;;3.55;;
32535;SDS011;18974;50.838;4.636;2023-12-20T09:39:16;19.25;;;3.75;;
32535;SDS011;18974;50.838;4.636;2023-12-20T09:42:02;20.30;;;3.28;;
32535;SDS011;18974;50.838;4.636;2023-12-20T09:44:29;17.60;;;3.90;;
32535;SDS011;18974;50.838;4.636;2023-12-20T09:46:55;21.05;;;3.55;;
32535;SDS011;18974;50.838;4.636;2023-12-20T09:49:22;20.13;;;3.28;;
32535;SDS011;18974;50.838;4.636;2023-12-20T09:51:48;19.38;;;3.00;;
32535;SDS011;18974;50.838;4.636;2023-12-20T09:54:17;24.05;;;3.65;;
32535;SDS011;18974;50.838;4.636;2023-12-20T09:56:43;26.58;;;4.65;;
32535;SDS011;18974;50.838;4.636;2023-12-20T09:59:09;22.70;;;4.25;;
32535;SDS011;18974;50.838;4.636;2023-12-20T10:01:35;16.58;;;3.17;;
32535;SDS011;18974;50.838;4.636;2023-12-20T10:04:04;18.92;;;4.45;;
32535;SDS011;18974;50.838;4.636;2023-12-20T10:06:34;21.27;;;3.50;;
32535;SDS011;18974;50.838;4.636;2023-12-20T10:09:04;20.98;;;3.47;;
32535;SDS011;18974;50.838;4.636;2023-12-20T10:11:30;24.98;;;3.30;;
32535;SDS011;18974;50.838;4.636;2023-12-20T10:13:59;18.92;;;3.90;;
32535;SDS011;18974;50.838;4.636;2023-12-20T10:16:29;20.38;;;3.72;;
32535;SDS011;18974;50.838;4.636;2023-12-20T10:18:55;20.65;;;3.50;;
32535;SDS011;18974;50.838;4.636;2023-12-20T10:21:25;22.67;;;3.85;;
32535;SDS011;18974;50.838;4.636;2023-12-20T10:23:54;18.70;;;3.72;;
32535;SDS011;18974;50.838;4.636;2023-12-20T10:26:21;21.75;;;3.75;;
32535;SDS011;18974;50.838;4.636;2023-12-20T10:28:54;16.17;;;3.60;;
32535;SDS011;18974;50.838;4.636;2023-12-20T10:31:31;24.42;;;3.90;;
32535;SDS011;18974;50.838;4.636;2023-12-20T10:33:58;25.23;;;3.35;;
32535;SDS011;18974;50.838;4.636;2023-12-20T10:36:31;14.85;;;3.17;;
32535;SDS011;18974;50.838;4.636;2023-12-20T10:38:57;17.77;;;4.03;;
32535;SDS011;18974;50.838;4.636;2023-12-20T10:41:27;18.30;;;3.70;;
32535;SDS011;18974;50.838;4.636;2023-12-20T10:43:58;17.42;;;3.08;;
32535;SDS011;18974;50.838;4.636;2023-12-20T10:46:26;19.08;;;3.53;;
32535;SDS011;18974;50.838;4.636;2023-12-20T10:48:53;20.98;;;3.53;;
32535;SDS011;18974;50.838;4.636;2023-12-20T10:51:20;13.05;;;3.10;;
32535;SDS011;18974;50.838;4.636;2023-12-20T10:53:47;20.90;;;4.13;;
32535;SDS011;18974;50.838;4.636;2023-12-20T10:56:17;23.02;;;3.78;;
32535;SDS011;18974;50.838;4.636;2023-12-20T10:58:43;21.98;;;4.82;;
32535;SDS011;18974;50.838;4.636;2023-12-20T11:01:14;21.65;;;3.55;;
32535;SDS011;18974;50.838;4.636;2023-12-20T11:03:46;21.25;;;3.30;;
32535;SDS011;18974;50.838;4.636;2023-12-20T11:06:27;20.48;;;3.85;;
32535;SDS011;18974;50.838;4.636;2023-12-20T11:09:22;21.52;;;3.33;;
32535;SDS011;18974;50.838;4.636;2023-12-20T11:11:59;20.30;;;3.53;;
32535;SDS011;18974;50.838;4.636;2023-12-20T11:14:41;12.15;;;3.47;;
32535;SDS011;18974;50.838;4.636;2023-12-20T11:17:12;21.85;;;4.20;;
32535;SDS011;18974;50.838;4.636;2023-12-20T11:22:25;14.98;;;3.00;;
32535;SDS011;18974;50.838;4.636;2023-12-20T11:25:02;20.15;;;3.72;;
32535;SDS011;18974;50.838;4.636;2023-12-20T11:27:30;18.65;;;3.97;;
32535;SDS011;18974;50.838;4.636;2023-12-20T11:29:56;21.30;;;4.10;;
32535;SDS011;18974;50.838;4.636;2023-12-20T11:34:58;26.05;;;4.32;;
32535;SDS011;18974;50.838;4.636;2023-12-20T11:37:28;25.15;;;4.20;;
32535;SDS011;18974;50.838;4.636;2023-12-20T11:42:27;15.95;;;2.67;;
32535;SDS011;18974;50.838;4.636;2023-12-20T11:44:53;22.85;;;4.03;;
32535;SDS011;18974;50.838;4.636;2023-12-20T11:47:19;17.98;;;3.58;;
32535;SDS011;18974;50.838;4.636;2023-12-20T11:49:48;20.23;;;3.50;;
32535;SDS011;18974;50.838;4.636;2023-12-20T11:52:14;23.63;;;3.42;;
32535;SDS011;18974;50.838;4.636;2023-12-20T11:54:39;27.95;;;4.18;;
32535;SDS011;18974;50.838;4.636;2023-12-20T11:57:05;22.23;;;3.38;;
32535;SDS011;18974;50.838;4.636;2023-12-20T11:59:31;19.10;;;3.70;;
32535;SDS011;18974;50.838;4.636;2023-12-20T12:01:58;23.25;;;4.18;;
32535;SDS011;18974;50.838;4.636;2023-12-20T12:04:26;20.17;;;3.60;;
32535;SDS011;18974;50.838;4.636;2023-12-20T12:06:53;19.00;;;3.10;;
32535;SDS011;18974;50.838;4.636;2023-12-20T12:09:19;24.73;;;3.65;;
32535;SDS011;18974;50.838;4.636;2023-12-20T12:11:44;20.25;;;3.58;;
32535;SDS011;18974;50.838;4.636;2023-12-20T12:14:10;20.77;;;3.85;;
32535;SDS011;18974;50.838;4.636;2023-12-20T12:16:37;24.67;;;3.65;;
32535;SDS011;18974;50.838;4.636;2023-12-20T12:19:02;25.90;;;4.53;;
32535;SDS011;18974;50.838;4.636;2023-12-20T12:21:29;17.85;;;3.90;;
32535;SDS011;18974;50.838;4.636;2023-12-20T12:24:05;21.95;;;3.85;;
32535;SDS011;18974;50.838;4.636;2023-12-20T12:26:34;22.70;;;4.95;;
32535;SDS011;18974;50.838;4.636;2023-12-20T12:29:00;18.02;;;4.32;;
32535;SDS011;18974;50.838;4.636;2023-12-20T12:31:28;22.63;;;3.72;;
32535;SDS011;18974;50.838;4.636;2023-12-20T12:33:55;20.50;;;3.80;;
32535;SDS011;18974;50.838;4.636;2023-12-20T12:36:21;18.88;;;3.65;;
32535;SDS011;18974;50.838;4.636;2023-12-20T12:38:47;22.25;;;3.65;;
32535;SDS011;18974;50.838;4.636;2023-12-20T12:41:13;24.48;;;4.13;;
32535;SDS011;18974;50.838;4.636;2023-12-20T12:43:40;20.42;;;3.67;;
32535;SDS011;18974;50.838;4.636;2023-12-20T12:46:06;21.45;;;4.03;;
32535;SDS011;18974;50.838;4.636;2023-12-20T12:48:32;29.13;;;3.95;;
32535;SDS011;18974;50.838;4.636;2023-12-20T12:50:58;17.52;;;4.15;;
32535;SDS011;18974;50.838;4.636;2023-12-20T12:53:25;15.27;;;2.72;;
32535;SDS011;18974;50.838;4.636;2023-12-20T12:56:00;21.30;;;4.38;;
32535;SDS011;18974;50.838;4.636;2023-12-20T12:58:26;18.33;;;3.40;;
32535;SDS011;18974;50.838;4.636;2023-12-20T13:00:51;18.42;;;3.60;;
32535;SDS011;18974;50.838;4.636;2023-12-20T13:11:03;21.55;;;3.38;;
32535;SDS011;18974;50.838;4.636;2023-12-20T13:13:29;17.70;;;3.92;;
32535;SDS011;18974;50.838;4.636;2023-12-20T13:15:56;21.23;;;4.13;;
32535;SDS011;18974;50.838;4.636;2023-12-20T13:18:22;21.55;;;3.15;;
32535;SDS011;18974;50.838;4.636;2023-12-20T13:20:48;23.55;;;3.88;;
32535;SDS011;18974;50.838;4.636;2023-12-20T13:23:14;11.82;;;2.80;;
32535;SDS011;18974;50.838;4.636;2023-12-20T13:25:41;22.23;;;4.03;;
32535;SDS011;18974;50.838;4.636;2023-12-20T13:28:07;16.70;;;3.42;;
32535;SDS011;18974;50.838;4.636;2023-12-20T13:30:33;14.43;;;3.22;;
32535;SDS011;18974;50.838;4.636;2023-12-20T13:32:59;16.25;;;3.85;;
32535;SDS011;18974;50.838;4.636;2023-12-20T13:35:25;22.50;;;3.75;;
32535;SDS011;18974;50.838;4.636;2023-12-20T13:37:50;16.77;;;3.53;;
32535;SDS011;18974;50.838;4.636;2023-12-20T13:40:16;18.90;;;3.45;;
32535;SDS011;18974;50.838;4.636;2023-12-20T13:42:43;18.08;;;3.60;;
32535;SDS011;18974;50.838;4.636;2023-12-20T13:45:08;16.90;;;3.03;;
32535;SDS011;18974;50.838;4.636;2023-12-20T13:47:34;25.83;;;3.75;;
32535;SDS011;18974;50.838;4.636;2023-12-20T13:50:00;24.13;;;3.47;;
32535;SDS011;18974;50.838;4.636;2023-12-20T13:52:27;22.60;;;3.65;;
32535;SDS011;18974;50.838;4.636;2023-12-20T13:54:53;18.73;;;3.67;;
32535;SDS011;18974;50.838;4.636;2023-12-20T13:57:19;14.85;;;3.45;;
32535;SDS011;18974;50.838;4.636;2023-12-20T13:59:47;17.73;;;3.28;;
32535;SDS011;18974;50.838;4.636;2023-12-20T14:02:13;20.80;;;3.55;;
32535;SDS011;18974;50.838;4.636;2023-12-20T14:04:39;19.75;;;3.47;;
32535;SDS011;18974;50.838;4.636;2023-12-20T14:07:04;23.20;;;3.28;;
32535;SDS011;18974;50.838;4.636;2023-12-20T14:09:32;20.25;;;3.45;;
32535;SDS011;18974;50.838;4.636;2023-12-20T14:11:58;22.10;;;3.47;;
32535;SDS011;18974;50.838;4.636;2023-12-20T14:14:24;15.35;;;3.55;;
32535;SDS011;18974;50.838;4.636;2023-12-20T14:16:50;25.40;;;3.88;;
32535;SDS011;18974;50.838;4.636;2023-12-20T14:19:16;20.30;;;3.05;;
32535;SDS011;18974;50.838;4.636;2023-12-20T14:21:42;18.75;;;3.05;;
32535;SDS011;18974;50.838;4.636;2023-12-20T14:24:11;23.52;;;4.18;;
32535;SDS011;18974;50.838;4.636;2023-12-20T14:26:39;17.52;;;3.42;;
32535;SDS011;18974;50.838;4.636;2023-12-20T14:29:08;28.88;;;3.95;;
32535;SDS011;18974;50.838;4.636;2023-12-20T14:31:34;24.17;;;3.38;;
32535;SDS011;18974;50.838;4.636;2023-12-20T14:34:00;20.92;;;4.03;;
32535;SDS011;18974;50.838;4.636;2023-12-20T14:36:28;25.05;;;3.75;;
32535;SDS011;18974;50.838;4.636;2023-12-20T14:38:56;27.33;;;3.58;;
32535;SDS011;18974;50.838;4.636;2023-12-20T14:41:22;22.17;;;4.80;;
32535;SDS011;18974;50.838;4.636;2023-12-20T14:43:49;17.90;;;3.50;;
32535;SDS011;18974;50.838;4.636;2023-12-20T14:46:17;21.27;;;3.50;;